メインページ
METAR-TAF:

METAR-TAF

空港 :

Port Meadville Airport

Meadville, ペンシルバニア州, アメリカ合衆国

緯度: 41-37-35N, 経度: 080-12-53W, 海抜: 427m

現時点の気象観測

当レポートは53分前の03:53(UTC)に作成
無風
気温 23°C
湿度 53%
気圧 1020 hPa
視程: 16.1km
晴天

METAR: KGKJ 270353Z AUTO 00000KT 10SM CLR 23/13 A3012 RMK AO2 SLP189 T02330133

時間: 00:46 (04:46 UTC)


TAF: 見つかりません

4,000以上の空港の気象観測と天気予報(METAR報とTAF報)

利用可能な観測所は地図上に黄色い丸と赤い丸で示す。

丸の上にカーソルを重ねると観測所名を参照できる。

次にクリックすると気象観測と天気予報を参照できる。

マップの切り替え:黒色「×」印の緑ボタンをクリックして拡大、「-」印の緑ボタンをクリックして縮小、緑色の三角印をクリックして隣りの地図に切り替え


METAR-TAF: